createdAt,value
2019-01-26T00:00:07.128Z,90.45
2019-01-26T00:00:38.400Z,90.43
2019-01-26T00:01:09.627Z,90.56
2019-01-26T00:01:40.836Z,90.52
2019-01-26T00:02:12.151Z,90.45
2019-01-26T00:02:43.367Z,90.46
2019-01-26T00:03:14.619Z,90.60
2019-01-26T00:03:45.848Z,90.72
2019-01-26T00:04:17.078Z,90.76
2019-01-26T00:04:48.331Z,90.61
2019-01-26T00:05:19.581Z,90.57
2019-01-26T00:05:50.812Z,90.50
2019-01-26T00:06:22.034Z,90.49
2019-01-26T00:06:53.255Z,90.60
2019-01-26T00:07:24.472Z,90.63
2019-01-26T00:07:55.686Z,90.76
2019-01-26T00:08:26.922Z,90.78
2019-01-26T00:08:58.160Z,90.79
2019-01-26T00:09:29.372Z,90.62
2019-01-26T00:10:00.687Z,90.39
2019-01-26T00:10:31.916Z,90.27
2019-01-26T00:11:03.143Z,90.47
2019-01-26T00:11:34.391Z,90.27
2019-01-26T00:12:05.610Z,89.88
2019-01-26T00:12:36.815Z,89.57
2019-01-26T00:13:08.055Z,89.52
2019-01-26T00:13:39.271Z,89.52
2019-01-26T00:14:10.582Z,89.52
2019-01-26T00:14:41.816Z,89.63
2019-01-26T00:15:13.042Z,89.73
2019-01-26T00:15:44.326Z,89.67
2019-01-26T00:16:20.998Z,89.72
2019-01-26T00:16:48.504Z,89.64
2019-01-26T00:17:19.725Z,89.50
2019-01-26T00:17:51.028Z,89.37
2019-01-26T00:18:22.255Z,89.45
2019-01-26T00:18:53.492Z,89.53
2019-01-26T00:19:24.774Z,89.55
2019-01-26T00:19:55.978Z,89.46
2019-01-26T00:20:27.194Z,89.47
2019-01-26T00:20:58.406Z,89.36
2019-01-26T00:21:29.637Z,89.34
2019-01-26T00:22:00.856Z,89.38
2019-01-26T00:22:32.076Z,89.40
2019-01-26T00:23:03.340Z,89.47
2019-01-26T00:23:34.598Z,89.52
2019-01-26T00:24:06.063Z,89.62
2019-01-26T00:24:37.297Z,89.46
2019-01-26T00:25:08.517Z,89.53
2019-01-26T00:25:39.742Z,89.59
2019-01-26T00:26:10.983Z,89.65
2019-01-26T00:26:42.203Z,89.77
2019-01-26T00:27:13.455Z,90.19
2019-01-26T00:27:44.691Z,90.18
2019-01-26T00:28:15.878Z,90.38
2019-01-26T00:28:47.093Z,90.32
2019-01-26T00:29:18.304Z,90.24
2019-01-26T00:29:49.514Z,90.40
2019-01-26T00:30:20.825Z,90.50
2019-01-26T00:30:52.060Z,90.37
2019-01-26T00:31:23.281Z,90.31
2019-01-26T00:31:54.490Z,90.85
2019-01-26T00:32:25.700Z,90.60
2019-01-26T00:32:56.962Z,90.22
2019-01-26T00:33:28.173Z,89.99
2019-01-26T00:33:59.385Z,89.87
2019-01-26T00:34:30.682Z,89.81
2019-01-26T00:35:01.889Z,89.62
2019-01-26T00:35:33.137Z,89.49
2019-01-26T00:36:04.344Z,89.35
2019-01-26T00:36:35.579Z,89.01
2019-01-26T00:37:06.808Z,89.00
2019-01-26T00:37:38.032Z,89.04
2019-01-26T00:38:09.317Z,88.71
2019-01-26T00:38:40.516Z,88.58
2019-01-26T00:39:11.729Z,88.06
2019-01-26T00:39:43.007Z,87.73
2019-01-26T00:40:14.242Z,87.56
2019-01-26T00:40:45.522Z,87.57
2019-01-26T00:41:16.734Z,87.87
2019-01-26T00:41:47.957Z,88.00
2019-01-26T00:42:19.412Z,88.15
2019-01-26T00:42:50.625Z,88.34
2019-01-26T00:43:21.892Z,88.77
2019-01-26T00:43:53.108Z,88.79
2019-01-26T00:44:24.343Z,88.79
2019-01-26T00:44:55.566Z,88.91
2019-01-26T00:45:26.813Z,88.91
2019-01-26T00:45:58.035Z,89.05
2019-01-26T00:46:29.291Z,88.89
2019-01-26T00:47:00.522Z,88.92
2019-01-26T00:47:31.732Z,89.15
2019-01-26T00:48:02.949Z,89.14
2019-01-26T00:48:34.167Z,89.12
2019-01-26T00:49:05.374Z,89.13
2019-01-26T00:49:36.608Z,89.17
2019-01-26T00:50:07.822Z,89.30
2019-01-26T00:50:39.034Z,89.51
2019-01-26T00:51:10.242Z,89.59
2019-01-26T00:51:41.514Z,89.65
2019-01-26T00:52:12.778Z,89.75
2019-01-26T00:52:43.998Z,89.81
2019-01-26T00:53:15.224Z,89.93
2019-01-26T00:53:46.449Z,90.06
2019-01-26T00:54:17.664Z,90.11
2019-01-26T00:54:48.923Z,90.06
2019-01-26T00:55:20.148Z,90.02
2019-01-26T00:55:51.373Z,90.03
2019-01-26T00:56:22.595Z,89.92
2019-01-26T00:56:53.877Z,89.77
2019-01-26T00:57:25.090Z,89.63
2019-01-26T00:57:56.310Z,89.60
2019-01-26T00:58:27.516Z,89.71
2019-01-26T00:58:58.807Z,89.87
2019-01-26T00:59:30.141Z,89.96
2019-01-26T01:00:01.438Z,90.21
2019-01-26T01:00:32.685Z,90.37
2019-01-26T01:01:03.922Z,90.43
2019-01-26T01:01:35.150Z,90.39
2019-01-26T01:02:06.372Z,90.42
2019-01-26T01:02:37.638Z,90.39
2019-01-26T01:03:08.860Z,90.50
2019-01-26T01:03:40.113Z,90.44
2019-01-26T01:04:11.397Z,90.39
2019-01-26T01:04:42.611Z,90.23
2019-01-26T01:05:13.838Z,90.21
2019-01-26T01:05:45.073Z,90.30
2019-01-26T01:06:16.385Z,90.33
2019-01-26T01:06:47.648Z,90.37
2019-01-26T01:07:18.870Z,90.51
2019-01-26T01:07:50.130Z,90.67
2019-01-26T01:08:21.382Z,90.75
2019-01-26T01:08:52.615Z,90.85
2019-01-26T01:09:23.820Z,90.85
2019-01-26T01:09:55.049Z,90.91
2019-01-26T01:10:26.286Z,90.93
2019-01-26T01:10:57.559Z,91.04
2019-01-26T01:11:28.771Z,91.11
2019-01-26T01:12:00.063Z,91.20
2019-01-26T01:12:31.324Z,91.30
2019-01-26T01:13:02.590Z,91.16
2019-01-26T01:13:33.803Z,91.06
2019-01-26T01:14:05.012Z,90.84
2019-01-26T01:14:36.246Z,90.85
2019-01-26T01:15:07.463Z,90.96
2019-01-26T01:15:38.675Z,90.70
2019-01-26T01:16:09.911Z,90.68
2019-01-26T01:16:41.123Z,90.50
2019-01-26T01:17:12.356Z,90.43
2019-01-26T01:17:43.573Z,90.40
2019-01-26T01:18:14.782Z,90.29
2019-01-26T01:18:45.947Z,90.17
2019-01-26T01:19:17.149Z,90.43
2019-01-26T01:19:48.455Z,90.35
2019-01-26T01:20:19.690Z,90.41
2019-01-26T01:20:50.959Z,90.38
2019-01-26T01:21:22.212Z,90.68
2019-01-26T01:21:53.454Z,90.78
2019-01-26T01:22:24.729Z,90.83
2019-01-26T01:22:55.954Z,90.91
2019-01-26T01:23:27.166Z,90.98
2019-01-26T01:23:58.456Z,91.24
2019-01-26T01:24:29.685Z,91.53
2019-01-26T01:25:00.950Z,91.84
2019-01-26T01:25:32.185Z,92.05
2019-01-26T01:26:03.401Z,92.06
2019-01-26T01:26:34.615Z,92.09
2019-01-26T01:27:05.835Z,91.98
2019-01-26T01:27:37.088Z,91.89
2019-01-26T01:28:08.313Z,91.92
2019-01-26T01:28:39.520Z,92.00
2019-01-26T01:29:10.784Z,92.06
2019-01-26T01:29:42.061Z,92.09
2019-01-26T01:30:13.290Z,92.12
2019-01-26T01:30:44.496Z,92.17
2019-01-26T01:31:15.713Z,92.19
2019-01-26T01:31:46.946Z,92.28
2019-01-26T01:32:18.169Z,92.32
2019-01-26T01:32:49.431Z,92.31
2019-01-26T01:33:20.672Z,92.32
2019-01-26T01:33:51.873Z,92.21
2019-01-26T01:34:23.899Z,92.15
2019-01-26T01:34:55.182Z,92.14
2019-01-26T01:35:26.438Z,92.11
2019-01-26T01:35:57.694Z,91.99
2019-01-26T01:36:28.942Z,91.88
2019-01-26T01:37:00.231Z,91.82
2019-01-26T01:37:31.459Z,91.81
2019-01-26T01:38:02.695Z,91.94
2019-01-26T01:38:33.905Z,91.87
2019-01-26T01:39:05.124Z,91.89
2019-01-26T01:39:36.336Z,91.96
2019-01-26T01:40:07.536Z,92.11
2019-01-26T01:40:40.214Z,92.01
2019-01-26T01:41:11.749Z,91.78
2019-01-26T01:41:42.971Z,91.65
2019-01-26T01:42:14.207Z,91.66
2019-01-26T01:42:45.467Z,91.62
2019-01-26T01:43:16.683Z,91.55
2019-01-26T01:43:47.888Z,91.53
2019-01-26T01:44:19.113Z,91.51
2019-01-26T01:44:50.383Z,91.59
2019-01-26T01:45:21.601Z,91.61
2019-01-26T01:45:52.813Z,91.56
2019-01-26T01:46:24.071Z,91.49
2019-01-26T01:46:55.280Z,91.41
2019-01-26T01:47:26.510Z,91.22
2019-01-26T01:47:57.736Z,91.26
2019-01-26T01:48:29.010Z,91.37
2019-01-26T01:49:00.338Z,91.38
2019-01-26T01:49:31.532Z,91.39
2019-01-26T01:50:02.766Z,91.44
2019-01-26T01:50:33.975Z,91.52
2019-01-26T01:51:05.234Z,91.65
2019-01-26T01:51:36.494Z,91.59
2019-01-26T01:52:07.695Z,91.56
2019-01-26T01:52:38.953Z,91.64
2019-01-26T01:53:12.513Z,91.57
2019-01-26T01:53:43.774Z,91.55
2019-01-26T01:54:14.980Z,91.67
2019-01-26T01:54:46.198Z,91.70
2019-01-26T01:55:17.462Z,91.66
2019-01-26T01:55:49.694Z,91.26
2019-01-26T01:56:20.907Z,90.92
2019-01-26T01:56:52.120Z,90.77
2019-01-26T01:57:23.332Z,90.79
2019-01-26T01:57:54.545Z,90.80
2019-01-26T01:58:25.778Z,90.72
2019-01-26T01:58:57.066Z,90.59
2019-01-26T01:59:28.275Z,90.51
2019-01-26T01:59:59.514Z,90.65
2019-01-26T02:00:30.800Z,90.81
2019-01-26T02:01:02.042Z,90.92
2019-01-26T02:01:33.278Z,91.06
2019-01-26T02:02:04.494Z,91.02
2019-01-26T02:02:35.702Z,91.01
2019-01-26T02:03:06.910Z,91.15
2019-01-26T02:03:38.171Z,91.28
2019-01-26T02:04:09.394Z,91.33
2019-01-26T02:04:40.639Z,91.47
2019-01-26T02:05:11.875Z,91.60
2019-01-26T02:05:43.139Z,91.56
2019-01-26T02:06:14.410Z,91.47
2019-01-26T02:06:45.625Z,91.28
2019-01-26T02:07:16.882Z,91.15
2019-01-26T02:07:48.116Z,91.24
2019-01-26T02:08:19.324Z,91.29
2019-01-26T02:08:50.574Z,91.41
2019-01-26T02:09:21.816Z,91.35
2019-01-26T02:09:53.025Z,91.27
2019-01-26T02:10:24.266Z,91.28
2019-01-26T02:10:55.471Z,91.12
2019-01-26T02:11:26.696Z,91.04
2019-01-26T02:11:57.920Z,90.81
2019-01-26T02:12:29.190Z,90.38
2019-01-26T02:13:00.396Z,90.45
2019-01-26T02:13:31.618Z,90.37
2019-01-26T02:14:02.868Z,90.64
2019-01-26T02:14:34.083Z,90.69
2019-01-26T02:15:05.303Z,90.67
2019-01-26T02:15:36.535Z,90.59
2019-01-26T02:16:07.739Z,90.53
2019-01-26T02:16:39.009Z,90.44
2019-01-26T02:17:10.223Z,90.40
2019-01-26T02:17:41.481Z,90.39
2019-01-26T02:18:12.694Z,90.51
2019-01-26T02:18:43.927Z,90.39
2019-01-26T02:19:15.111Z,90.34
2019-01-26T02:19:46.328Z,90.32
2019-01-26T02:20:17.557Z,90.27
2019-01-26T02:20:48.790Z,90.15
2019-01-26T02:21:20.368Z,89.98
2019-01-26T02:21:51.583Z,89.93
2019-01-26T02:22:22.793Z,89.94
2019-01-26T02:22:54.069Z,89.89
2019-01-26T02:23:25.277Z,89.82
2019-01-26T02:23:56.508Z,89.96
2019-01-26T02:24:27.721Z,90.12
2019-01-26T02:24:58.995Z,90.22
2019-01-26T02:25:30.206Z,90.20
2019-01-26T02:26:01.484Z,90.13
2019-01-26T02:26:32.743Z,90.06
2019-01-26T02:27:03.956Z,89.96
2019-01-26T02:27:35.171Z,89.92
2019-01-26T02:28:06.419Z,90.02
2019-01-26T02:28:37.680Z,89.75
2019-01-26T02:29:08.916Z,89.47
2019-01-26T02:29:40.145Z,89.49
2019-01-26T02:30:11.360Z,89.55
2019-01-26T02:30:42.581Z,89.51
2019-01-26T02:31:13.842Z,89.37
2019-01-26T02:31:45.093Z,89.17
2019-01-26T02:32:16.289Z,89.18
2019-01-26T02:32:47.544Z,89.10
2019-01-26T02:33:18.752Z,89.02
2019-01-26T02:33:49.970Z,89.08
2019-01-26T02:34:21.204Z,89.20
2019-01-26T02:34:52.472Z,89.41
2019-01-26T02:35:23.711Z,89.48
2019-01-26T02:35:54.927Z,89.51
2019-01-26T02:36:26.156Z,89.42
2019-01-26T02:36:57.390Z,89.38
2019-01-26T02:37:29.727Z,89.34
2019-01-26T02:38:00.950Z,89.35
2019-01-26T02:38:32.168Z,89.38
2019-01-26T02:39:03.383Z,89.35
2019-01-26T02:39:34.610Z,89.41
2019-01-26T02:40:05.881Z,89.27
2019-01-26T02:40:37.090Z,89.23
2019-01-26T02:41:08.318Z,89.25
2019-01-26T02:41:39.581Z,89.25
2019-01-26T02:42:10.786Z,89.16
2019-01-26T02:42:42.045Z,89.06
2019-01-26T02:43:13.280Z,88.93
2019-01-26T02:43:44.507Z,88.90
2019-01-26T02:44:15.796Z,89.04
2019-01-26T02:44:47.002Z,89.15
2019-01-26T02:45:18.225Z,89.15
2019-01-26T02:45:49.468Z,88.72
2019-01-26T02:46:20.686Z,88.62
2019-01-26T02:46:57.893Z,88.54
2019-01-26T02:47:25.821Z,88.46
2019-01-26T02:47:57.053Z,88.55
2019-01-26T02:48:28.268Z,88.71
2019-01-26T02:48:59.484Z,88.81
2019-01-26T02:49:30.707Z,88.81
2019-01-26T02:50:01.956Z,88.95
2019-01-26T02:50:33.141Z,88.98
2019-01-26T02:51:04.382Z,88.76
2019-01-26T02:51:35.591Z,88.78
2019-01-26T02:52:06.876Z,88.84
2019-01-26T02:52:38.092Z,88.97
2019-01-26T02:53:09.346Z,89.13
2019-01-26T02:53:40.549Z,89.30
2019-01-26T02:54:11.754Z,89.12
2019-01-26T02:54:42.967Z,89.03
2019-01-26T02:55:14.202Z,88.94
2019-01-26T02:55:45.446Z,88.69
2019-01-26T02:56:16.743Z,88.58
2019-01-26T02:56:47.968Z,88.52
2019-01-26T02:57:19.254Z,88.58
2019-01-26T02:57:50.516Z,88.60
2019-01-26T02:58:21.750Z,88.57
2019-01-26T02:58:52.980Z,88.49
2019-01-26T02:59:24.191Z,88.73
2019-01-26T02:59:55.423Z,88.75
2019-01-26T03:00:26.644Z,88.88
2019-01-26T03:00:57.857Z,89.06
2019-01-26T03:01:29.103Z,89.12
2019-01-26T03:02:00.332Z,89.14
2019-01-26T03:02:31.592Z,89.31
2019-01-26T03:03:02.805Z,89.51
2019-01-26T03:03:34.030Z,89.58
2019-01-26T03:04:05.297Z,89.97
2019-01-26T03:04:36.539Z,90.16
2019-01-26T03:05:07.781Z,90.35
2019-01-26T03:05:38.993Z,90.15
2019-01-26T03:06:12.180Z,89.87
2019-01-26T03:06:43.499Z,89.77
2019-01-26T03:07:14.730Z,89.76
2019-01-26T03:07:45.938Z,89.87
2019-01-26T03:08:17.235Z,89.85
2019-01-26T03:08:48.470Z,89.66
2019-01-26T03:09:19.673Z,89.66
2019-01-26T03:09:50.900Z,89.99
2019-01-26T03:10:22.122Z,90.09
2019-01-26T03:10:53.335Z,90.05
2019-01-26T03:11:24.567Z,89.94
2019-01-26T03:11:55.786Z,89.93
2019-01-26T03:12:27.022Z,89.81
2019-01-26T03:12:58.285Z,89.86
2019-01-26T03:13:29.523Z,89.84
2019-01-26T03:14:00.738Z,89.91
2019-01-26T03:14:31.948Z,89.76
2019-01-26T03:15:03.204Z,89.87
2019-01-26T03:15:35.426Z,90.04
2019-01-26T03:16:06.717Z,90.10
2019-01-26T03:16:37.969Z,90.04
2019-01-26T03:17:09.318Z,89.83
2019-01-26T03:17:40.626Z,89.64
2019-01-26T03:18:11.860Z,89.59
2019-01-26T03:18:43.075Z,89.69
2019-01-26T03:19:14.305Z,89.72
2019-01-26T03:19:45.531Z,89.58
2019-01-26T03:20:16.793Z,89.57
2019-01-26T03:20:48.008Z,89.41
2019-01-26T03:21:19.256Z,89.27
2019-01-26T03:21:50.475Z,89.24
2019-01-26T03:22:21.762Z,89.16
2019-01-26T03:22:53.003Z,89.17
2019-01-26T03:23:24.268Z,88.91
2019-01-26T03:23:55.533Z,88.83
2019-01-26T03:24:26.797Z,88.87
2019-01-26T03:24:58.028Z,88.92
2019-01-26T03:25:29.245Z,88.63
2019-01-26T03:26:00.477Z,88.49
2019-01-26T03:26:31.744Z,88.44
2019-01-26T03:27:02.994Z,88.50
2019-01-26T03:27:34.231Z,88.78
2019-01-26T03:28:05.451Z,88.90
2019-01-26T03:28:36.681Z,89.12
2019-01-26T03:29:07.910Z,89.09
2019-01-26T03:29:39.212Z,88.95
2019-01-26T03:30:10.416Z,88.86
2019-01-26T03:30:41.654Z,88.96
2019-01-26T03:31:12.890Z,88.94
2019-01-26T03:31:44.139Z,88.89
2019-01-26T03:32:15.399Z,88.94
2019-01-26T03:32:46.614Z,89.02
2019-01-26T03:33:17.881Z,89.27
2019-01-26T03:33:49.108Z,89.09
2019-01-26T03:34:20.365Z,89.12
2019-01-26T03:34:51.594Z,89.18
2019-01-26T03:35:22.819Z,89.23
2019-01-26T03:35:54.051Z,89.41
2019-01-26T03:36:25.313Z,89.42
2019-01-26T03:36:56.553Z,89.34
2019-01-26T03:37:27.790Z,89.35
2019-01-26T03:37:59.084Z,89.49
2019-01-26T03:38:30.350Z,89.54
2019-01-26T03:39:01.529Z,89.53
2019-01-26T03:39:32.769Z,89.57
2019-01-26T03:40:03.982Z,89.56
2019-01-26T03:40:35.220Z,89.49
2019-01-26T03:41:06.432Z,89.53
2019-01-26T03:41:37.676Z,89.64
2019-01-26T03:42:08.927Z,89.59
2019-01-26T03:42:40.161Z,89.55
2019-01-26T03:43:13.659Z,89.67
2019-01-26T03:43:44.865Z,89.68
2019-01-26T03:44:16.098Z,89.71
2019-01-26T03:44:47.316Z,89.65
2019-01-26T03:45:18.535Z,89.44
2019-01-26T03:45:49.743Z,89.36
2019-01-26T03:46:23.146Z,89.13
2019-01-26T03:46:54.363Z,89.17
2019-01-26T03:47:25.571Z,89.46
2019-01-26T03:47:57.025Z,89.46
2019-01-26T03:48:28.247Z,89.41
2019-01-26T03:48:59.482Z,89.43
2019-01-26T03:49:30.696Z,89.36
2019-01-26T03:50:01.914Z,89.36
2019-01-26T03:50:33.180Z,89.47
2019-01-26T03:51:04.459Z,89.55
2019-01-26T03:51:35.668Z,89.53
2019-01-26T03:52:06.914Z,89.47
2019-01-26T03:52:38.120Z,89.44
2019-01-26T03:53:09.492Z,89.38
2019-01-26T03:53:40.707Z,89.26
2019-01-26T03:54:11.932Z,89.19
2019-01-26T03:54:43.191Z,89.41
2019-01-26T03:55:14.393Z,89.36
2019-01-26T03:55:45.631Z,89.14
2019-01-26T03:56:16.910Z,88.96
2019-01-26T03:56:48.175Z,88.72
2019-01-26T03:57:20.310Z,88.53
2019-01-26T03:57:51.745Z,88.57
2019-01-26T03:58:23.059Z,88.78
2019-01-26T03:58:54.273Z,88.93
2019-01-26T03:59:25.561Z,88.98
2019-01-26T03:59:56.772Z,88.68
2019-01-26T04:00:28.014Z,88.54
2019-01-26T04:00:59.256Z,88.51
2019-01-26T04:01:30.471Z,88.56
2019-01-26T04:02:01.703Z,88.57
2019-01-26T04:02:32.933Z,88.54
2019-01-26T04:03:04.147Z,88.56
2019-01-26T04:03:35.426Z,88.68
2019-01-26T04:04:06.672Z,88.65
2019-01-26T04:04:37.909Z,88.77
2019-01-26T04:05:09.123Z,88.71
2019-01-26T04:05:40.330Z,88.61
2019-01-26T04:06:11.572Z,88.76
2019-01-26T04:06:42.778Z,88.94
2019-01-26T04:07:13.998Z,89.11
2019-01-26T04:07:45.212Z,89.10
2019-01-26T04:08:16.464Z,89.13
2019-01-26T04:08:47.709Z,89.05
2019-01-26T04:09:18.922Z,88.88
2019-01-26T04:09:50.203Z,88.87
2019-01-26T04:10:21.443Z,88.85
2019-01-26T04:10:52.656Z,88.82
2019-01-26T04:11:23.870Z,88.87
2019-01-26T04:11:56.112Z,88.84
2019-01-26T04:12:27.344Z,88.87
2019-01-26T04:12:58.627Z,88.91
2019-01-26T04:13:29.840Z,88.88
2019-01-26T04:14:01.056Z,88.85
2019-01-26T04:14:32.330Z,88.92
2019-01-26T04:15:03.572Z,88.91
2019-01-26T04:15:34.820Z,89.05
2019-01-26T04:16:06.050Z,89.10
2019-01-26T04:16:37.279Z,89.27
2019-01-26T04:17:08.497Z,89.28
2019-01-26T04:17:39.720Z,89.24
2019-01-26T04:18:10.971Z,89.02
2019-01-26T04:18:42.188Z,88.73
2019-01-26T04:19:13.422Z,88.59
2019-01-26T04:19:44.641Z,88.59
2019-01-26T04:20:15.910Z,88.23
2019-01-26T04:20:47.159Z,87.96
2019-01-26T04:21:18.436Z,87.69
2019-01-26T04:21:49.647Z,87.62
2019-01-26T04:22:20.910Z,87.55
2019-01-26T04:22:52.195Z,87.41
2019-01-26T04:23:23.410Z,87.50
2019-01-26T04:23:54.674Z,87.55
2019-01-26T04:24:25.922Z,87.57
2019-01-26T04:24:57.199Z,87.53
2019-01-26T04:25:28.421Z,87.49
2019-01-26T04:25:59.642Z,87.38
2019-01-26T04:26:30.878Z,87.38
2019-01-26T04:27:02.132Z,87.33
2019-01-26T04:27:33.396Z,87.35
2019-01-26T04:28:04.608Z,87.25
2019-01-26T04:28:35.847Z,87.07
2019-01-26T04:29:07.085Z,87.06
2019-01-26T04:29:38.318Z,87.08
2019-01-26T04:30:09.556Z,87.07
2019-01-26T04:30:40.846Z,87.11
2019-01-26T04:31:12.072Z,87.11
2019-01-26T04:31:43.381Z,87.03
2019-01-26T04:32:14.616Z,87.08
2019-01-26T04:32:46.274Z,87.12
2019-01-26T04:33:17.528Z,87.15
2019-01-26T04:33:48.806Z,87.23
2019-01-26T04:34:20.073Z,87.31
2019-01-26T04:34:51.281Z,87.30
2019-01-26T04:35:22.506Z,87.20
2019-01-26T04:35:53.759Z,87.20
2019-01-26T04:36:25.008Z,87.29
2019-01-26T04:36:56.287Z,87.25
2019-01-26T04:37:27.545Z,87.18
2019-01-26T04:37:58.795Z,87.18
2019-01-26T04:38:30.025Z,87.17
2019-01-26T04:39:01.234Z,87.07
2019-01-26T04:39:32.472Z,87.02
2019-01-26T04:40:03.686Z,86.90
2019-01-26T04:40:34.913Z,87.10
2019-01-26T04:41:06.173Z,87.06
2019-01-26T04:41:37.393Z,87.15
2019-01-26T04:42:08.654Z,87.09
2019-01-26T04:42:39.870Z,87.12
2019-01-26T04:43:11.079Z,87.00
2019-01-26T04:43:42.301Z,87.03
2019-01-26T04:44:13.536Z,87.33
2019-01-26T04:44:44.750Z,87.28
2019-01-26T04:45:16.007Z,87.25
2019-01-26T04:45:47.275Z,87.19
2019-01-26T04:46:18.537Z,86.96
2019-01-26T04:46:49.795Z,86.92
2019-01-26T04:47:21.028Z,86.88
2019-01-26T04:47:52.268Z,86.89
2019-01-26T04:48:23.477Z,86.84
2019-01-26T04:48:54.695Z,86.63
2019-01-26T04:49:25.964Z,86.74
2019-01-26T04:49:57.264Z,86.59
2019-01-26T04:50:28.506Z,86.66
2019-01-26T04:50:59.745Z,87.03
2019-01-26T04:51:31.004Z,86.48
2019-01-26T04:52:02.237Z,86.19
2019-01-26T04:52:33.453Z,85.79
2019-01-26T04:53:04.715Z,85.81
2019-01-26T04:53:35.925Z,85.90
2019-01-26T04:54:07.201Z,86.23
2019-01-26T04:54:38.434Z,86.63
2019-01-26T04:55:09.687Z,86.55
2019-01-26T04:55:40.917Z,86.76
2019-01-26T04:56:12.148Z,86.79
2019-01-26T04:56:43.353Z,86.80
2019-01-26T04:57:14.591Z,87.01
2019-01-26T04:57:45.823Z,86.96
2019-01-26T04:58:17.040Z,86.80
2019-01-26T04:58:48.309Z,86.56
2019-01-26T04:59:19.537Z,86.52
2019-01-26T04:59:50.759Z,86.52
2019-01-26T05:00:22.012Z,86.73
2019-01-26T05:00:53.227Z,86.58
2019-01-26T05:01:24.485Z,86.58
2019-01-26T05:01:55.697Z,86.68
2019-01-26T05:02:26.914Z,86.46
2019-01-26T05:02:58.206Z,86.33
2019-01-26T05:03:29.468Z,86.33
2019-01-26T05:04:00.695Z,86.26
2019-01-26T05:04:31.925Z,86.34
2019-01-26T05:05:03.126Z,86.52
2019-01-26T05:05:34.360Z,86.56
2019-01-26T05:06:05.647Z,86.69
2019-01-26T05:06:36.872Z,86.76
2019-01-26T05:07:08.093Z,86.78
2019-01-26T05:07:39.309Z,86.74
2019-01-26T05:08:10.543Z,86.76
2019-01-26T05:08:41.802Z,86.80
2019-01-26T05:09:13.022Z,86.92
2019-01-26T05:09:44.235Z,87.04
2019-01-26T05:10:15.467Z,86.88
2019-01-26T05:10:46.672Z,86.73
2019-01-26T05:11:17.938Z,86.86
2019-01-26T05:11:49.150Z,86.88
2019-01-26T05:12:20.373Z,87.14
2019-01-26T05:12:51.578Z,87.17
2019-01-26T05:13:22.803Z,87.02
2019-01-26T05:13:54.056Z,86.84
2019-01-26T05:14:25.271Z,86.75
2019-01-26T05:14:56.523Z,86.60
2019-01-26T05:15:27.763Z,86.46
2019-01-26T05:15:59.004Z,86.65
2019-01-26T05:16:30.234Z,86.94
2019-01-26T05:17:01.462Z,86.92
2019-01-26T05:17:39.233Z,86.82
2019-01-26T05:18:06.638Z,86.48
2019-01-26T05:18:37.911Z,86.18
2019-01-26T05:19:09.210Z,86.11
2019-01-26T05:19:40.425Z,86.09
2019-01-26T05:20:11.661Z,86.05
2019-01-26T05:20:42.887Z,86.28
2019-01-26T05:21:14.141Z,86.41
2019-01-26T05:21:45.371Z,86.64
2019-01-26T05:22:16.581Z,86.43
2019-01-26T05:22:47.801Z,86.29
2019-01-26T05:23:19.060Z,86.21
2019-01-26T05:23:50.294Z,86.11
2019-01-26T05:24:21.509Z,86.03
2019-01-26T05:24:52.717Z,86.06
2019-01-26T05:25:23.961Z,86.04
2019-01-26T05:25:55.162Z,86.10
2019-01-26T05:26:26.429Z,86.14
2019-01-26T05:26:57.666Z,86.08
2019-01-26T05:27:28.888Z,86.22
2019-01-26T05:28:00.116Z,86.33
2019-01-26T05:28:31.394Z,86.51
2019-01-26T05:29:02.691Z,86.52
2019-01-26T05:29:33.918Z,86.51
2019-01-26T05:30:05.148Z,86.62
2019-01-26T05:30:36.378Z,86.54
2019-01-26T05:31:07.619Z,86.59
2019-01-26T05:31:38.877Z,86.67
2019-01-26T05:32:10.171Z,86.59
2019-01-26T05:32:41.421Z,86.63
2019-01-26T05:33:12.630Z,85.66
2019-01-26T05:33:43.909Z,84.85
2019-01-26T05:34:15.142Z,84.44
2019-01-26T05:34:46.382Z,84.31
2019-01-26T05:35:17.643Z,84.38
2019-01-26T05:35:48.881Z,84.55
2019-01-26T05:36:20.145Z,84.98
2019-01-26T05:36:51.357Z,84.78
2019-01-26T05:37:22.622Z,84.71
2019-01-26T05:37:53.882Z,84.69
2019-01-26T05:38:25.128Z,84.70
2019-01-26T05:38:56.383Z,84.87
2019-01-26T05:39:27.598Z,85.27
2019-01-26T05:39:58.808Z,85.49
2019-01-26T05:40:30.036Z,85.73
2019-01-26T05:41:01.305Z,85.51
2019-01-26T05:41:32.532Z,85.56
2019-01-26T05:42:03.781Z,85.64
2019-01-26T05:42:35.000Z,85.59
2019-01-26T05:43:06.303Z,85.60
2019-01-26T05:43:37.544Z,85.43
2019-01-26T05:44:08.788Z,85.30
2019-01-26T05:44:40.047Z,85.18
2019-01-26T05:45:11.271Z,85.18
2019-01-26T05:45:42.525Z,85.36
2019-01-26T05:46:13.860Z,85.42
2019-01-26T05:46:45.098Z,84.84
2019-01-26T05:47:16.310Z,84.28
2019-01-26T05:47:49.291Z,84.22
2019-01-26T05:48:20.469Z,83.92
2019-01-26T05:48:51.716Z,83.11
2019-01-26T05:49:22.942Z,83.05
2019-01-26T05:49:54.157Z,83.07
2019-01-26T05:50:25.541Z,83.03
2019-01-26T05:50:56.785Z,83.12
2019-01-26T05:51:28.023Z,83.05
2019-01-26T05:51:59.269Z,83.40
2019-01-26T05:52:30.516Z,83.51
2019-01-26T05:53:01.740Z,83.43
2019-01-26T05:53:33.048Z,83.66
2019-01-26T05:54:04.257Z,83.97
2019-01-26T05:54:35.482Z,84.53
2019-01-26T05:55:06.708Z,84.50
2019-01-26T05:55:37.990Z,84.03
2019-01-26T05:56:09.219Z,84.16
2019-01-26T05:56:40.482Z,83.82
2019-01-26T05:57:11.714Z,83.64
2019-01-26T05:57:42.953Z,83.74
2019-01-26T05:58:14.168Z,83.72
2019-01-26T05:58:45.422Z,83.67
2019-01-26T05:59:16.633Z,83.75
2019-01-26T05:59:47.869Z,83.99
2019-01-26T06:00:19.092Z,83.99
2019-01-26T06:00:50.365Z,84.22
2019-01-26T06:01:21.616Z,84.24
2019-01-26T06:01:52.839Z,84.35
2019-01-26T06:02:24.097Z,84.47
2019-01-26T06:02:55.345Z,84.64
2019-01-26T06:03:26.589Z,84.64
2019-01-26T06:03:57.847Z,84.52
2019-01-26T06:04:29.049Z,84.44
2019-01-26T06:05:00.313Z,84.48
2019-01-26T06:05:31.581Z,84.56
2019-01-26T06:06:02.830Z,84.93
2019-01-26T06:06:34.135Z,84.92
2019-01-26T06:07:05.398Z,84.73
2019-01-26T06:07:36.617Z,84.21
2019-01-26T06:08:07.830Z,84.08
2019-01-26T06:08:39.056Z,84.00
2019-01-26T06:09:10.379Z,84.26
2019-01-26T06:09:41.628Z,84.29
2019-01-26T06:10:12.867Z,84.04
2019-01-26T06:10:44.150Z,83.87
2019-01-26T06:11:15.478Z,84.00
2019-01-26T06:11:46.813Z,83.94
2019-01-26T06:12:18.146Z,84.04
2019-01-26T06:12:49.473Z,84.64
2019-01-26T06:13:20.774Z,84.57
2019-01-26T06:13:52.093Z,84.41
2019-01-26T06:14:23.390Z,84.26
2019-01-26T06:14:54.733Z,84.35
2019-01-26T06:15:26.064Z,84.74
2019-01-26T06:15:57.409Z,85.03
2019-01-26T06:16:30.421Z,85.02
2019-01-26T06:17:01.672Z,84.58
2019-01-26T06:17:33.039Z,84.18
2019-01-26T06:18:04.359Z,83.73
2019-01-26T06:18:35.671Z,83.88
2019-01-26T06:19:07.002Z,84.14
2019-01-26T06:19:38.374Z,84.32
2019-01-26T06:20:09.717Z,83.62
2019-01-26T06:20:41.074Z,83.05
2019-01-26T06:21:12.346Z,82.62
2019-01-26T06:21:44.725Z,82.36
2019-01-26T06:22:16.039Z,81.98
2019-01-26T06:22:47.402Z,81.46
2019-01-26T06:23:18.642Z,81.77
2019-01-26T06:23:50.031Z,81.50
2019-01-26T06:24:21.314Z,80.88
2019-01-26T06:24:52.593Z,80.59
2019-01-26T06:25:23.933Z,80.32
2019-01-26T06:25:55.310Z,80.40
2019-01-26T06:26:26.660Z,79.74
2019-01-26T06:26:58.894Z,79.55
2019-01-26T06:27:30.303Z,80.00
2019-01-26T06:28:01.702Z,80.28
2019-01-26T06:28:33.084Z,79.70
2019-01-26T06:29:04.494Z,79.64
2019-01-26T06:29:35.819Z,79.62
2019-01-26T06:30:07.319Z,79.91
2019-01-26T06:30:38.704Z,79.91
2019-01-26T06:31:10.343Z,79.84
2019-01-26T06:31:41.711Z,79.64
2019-01-26T06:32:13.090Z,79.58
2019-01-26T06:32:44.496Z,79.12
2019-01-26T06:33:15.946Z,79.22
2019-01-26T06:33:47.640Z,79.39
2019-01-26T06:34:18.952Z,79.76
2019-01-26T06:34:50.288Z,79.79
2019-01-26T06:35:21.616Z,80.01
2019-01-26T06:35:52.962Z,80.32
2019-01-26T06:36:24.340Z,80.28
2019-01-26T06:36:55.626Z,80.30
2019-01-26T06:37:26.912Z,80.45
2019-01-26T06:37:58.672Z,80.21
2019-01-26T06:38:30.030Z,80.12
2019-01-26T06:39:01.498Z,80.51
2019-01-26T06:39:32.959Z,80.71
2019-01-26T06:40:04.401Z,80.55
2019-01-26T06:40:35.707Z,80.32
2019-01-26T06:41:07.146Z,80.22
2019-01-26T06:41:38.608Z,80.59
2019-01-26T06:42:10.017Z,81.48
2019-01-26T06:42:41.429Z,81.23